createdAt,value
2023-01-10T00:00:12.109Z,98.10
2023-01-10T00:02:41.413Z,98.00
2023-01-10T00:05:10.947Z,98.10
2023-01-10T00:07:40.105Z,98.10
2023-01-10T00:10:10.045Z,98.20
2023-01-10T00:12:57.759Z,98.20
2023-01-10T00:15:26.877Z,98.20
2023-01-10T00:17:56.041Z,98.20
2023-01-10T00:20:25.203Z,98.30
2023-01-10T00:22:54.356Z,98.20
2023-01-10T00:25:23.923Z,98.30
2023-01-10T00:28:17.204Z,98.30
2023-01-10T00:31:10.737Z,98.40
2023-01-10T00:33:40.564Z,98.40
2023-01-10T00:36:11.894Z,98.40
2023-01-10T00:38:41.099Z,98.40
2023-01-10T00:41:30.011Z,98.50
2023-01-10T00:43:59.410Z,98.50
2023-01-10T00:46:29.276Z,98.50
2023-01-10T00:48:58.372Z,98.60
2023-01-10T00:51:27.591Z,98.40
2023-01-10T00:53:56.741Z,98.50
2023-01-10T00:56:25.830Z,98.40
2023-01-10T00:58:54.927Z,98.40
2023-01-10T01:01:25.148Z,98.40
2023-01-10T01:03:54.497Z,98.40
2023-01-10T01:06:27.855Z,98.40
2023-01-10T01:09:00.159Z,98.40
2023-01-10T01:11:29.353Z,98.40
2023-01-10T01:14:06.883Z,98.40
2023-01-10T01:16:36.062Z,98.40
2023-01-10T01:19:05.197Z,98.40
2023-01-10T01:21:34.357Z,98.30
2023-01-10T01:24:03.501Z,98.30
2023-01-10T01:26:32.759Z,98.20
2023-01-10T01:29:02.020Z,98.20
2023-01-10T01:31:31.146Z,98.20
2023-01-10T01:34:00.547Z,98.10
2023-01-10T01:36:29.787Z,98.10
2023-01-10T01:38:58.935Z,97.90
2023-01-10T01:41:46.340Z,97.90
2023-01-10T01:44:21.142Z,97.70
2023-01-10T01:47:26.270Z,97.70
2023-01-10T01:49:57.074Z,97.50
2023-01-10T01:52:38.303Z,97.40
2023-01-10T01:55:08.145Z,97.30
2023-01-10T01:57:43.664Z,97.20
2023-01-10T02:00:15.870Z,97.20
2023-01-10T02:03:02.230Z,97.20
2023-01-10T02:05:35.039Z,97.00
2023-01-10T02:08:06.901Z,97.00
2023-01-10T02:10:49.940Z,96.90
2023-01-10T02:13:25.004Z,96.90
2023-01-10T02:15:54.319Z,96.80
2023-01-10T02:18:25.685Z,96.70
2023-01-10T02:21:18.502Z,96.60
2023-01-10T02:24:08.914Z,96.60
2023-01-10T02:27:02.255Z,96.60
2023-01-10T02:30:03.770Z,96.60
2023-01-10T02:33:11.153Z,96.40
2023-01-10T02:36:10.859Z,96.60
2023-01-10T02:39:33.606Z,96.30
2023-01-10T02:42:22.416Z,96.20
2023-01-10T02:45:05.788Z,96.10
2023-01-10T02:47:43.334Z,95.80
2023-01-10T02:50:48.279Z,95.40
2023-01-10T02:53:40.945Z,95.40
2023-01-10T02:56:19.518Z,95.30
2023-01-10T02:59:16.266Z,95.20
2023-01-10T03:02:00.258Z,95.30
2023-01-10T03:05:04.190Z,95.00
2023-01-10T03:08:02.460Z,95.00
2023-01-10T03:10:38.846Z,94.90
2023-01-10T03:13:20.741Z,95.10
2023-01-10T03:15:56.225Z,94.70
2023-01-10T03:18:55.669Z,94.40
2023-01-10T03:21:27.609Z,94.20
2023-01-10T03:24:05.678Z,94.40
2023-01-10T03:26:45.103Z,94.50
2023-01-10T03:29:19.785Z,94.60
2023-01-10T03:31:57.789Z,94.50
2023-01-10T03:34:28.383Z,94.30
2023-01-10T03:37:31.657Z,94.20
2023-01-10T03:40:41.015Z,94.40
2023-01-10T03:44:09.207Z,94.00
2023-01-10T03:46:51.201Z,94.20
2023-01-10T03:49:25.846Z,94.30
2023-01-10T03:51:58.261Z,94.30
2023-01-10T03:54:27.619Z,94.10
2023-01-10T03:56:56.805Z,94.10
2023-01-10T03:59:29.408Z,93.70
2023-01-10T04:01:59.641Z,93.70
2023-01-10T04:04:29.069Z,93.60
2023-01-10T04:06:58.164Z,93.70
2023-01-10T04:09:27.281Z,93.50
2023-01-10T04:11:56.442Z,93.30
2023-01-10T04:14:25.574Z,93.10
2023-01-10T04:16:55.015Z,93.20
2023-01-10T04:19:24.227Z,93.10
2023-01-10T04:21:53.628Z,93.00
2023-01-10T04:24:23.269Z,92.90
2023-01-10T04:26:52.564Z,92.70
2023-01-10T04:29:21.675Z,92.50
2023-01-10T04:31:51.098Z,92.40
2023-01-10T04:34:23.048Z,92.30
2023-01-10T04:36:52.268Z,92.20
2023-01-10T04:39:21.351Z,92.00
2023-01-10T04:41:50.843Z,92.10
2023-01-10T04:44:19.995Z,91.90
2023-01-10T04:46:49.104Z,91.90
2023-01-10T04:49:18.240Z,91.90
2023-01-10T04:51:47.326Z,91.70
2023-01-10T04:54:16.535Z,91.70
2023-01-10T04:56:45.614Z,91.80
2023-01-10T04:59:14.785Z,91.80
2023-01-10T05:01:44.035Z,91.70
2023-01-10T05:04:13.272Z,91.70
2023-01-10T05:06:42.397Z,91.70
2023-01-10T05:09:12.099Z,91.70
2023-01-10T05:11:41.251Z,91.60
2023-01-10T05:14:10.517Z,91.40
2023-01-10T05:16:39.798Z,91.40
2023-01-10T05:19:09.438Z,91.20
2023-01-10T05:21:38.599Z,91.00
2023-01-10T05:24:08.240Z,90.90
2023-01-10T05:26:37.411Z,90.80
2023-01-10T05:29:06.510Z,91.00
2023-01-10T05:31:35.600Z,91.10
2023-01-10T05:34:05.014Z,90.80
2023-01-10T05:36:34.513Z,90.70
2023-01-10T05:39:03.614Z,90.60
2023-01-10T05:41:41.559Z,90.70
2023-01-10T05:44:10.785Z,90.80
2023-01-10T05:46:39.963Z,90.70
2023-01-10T05:49:09.141Z,90.50
2023-01-10T05:51:38.251Z,90.50
2023-01-10T05:54:07.638Z,90.60
2023-01-10T05:56:36.953Z,90.50
2023-01-10T06:01:54.227Z,90.30
2023-01-10T06:04:29.541Z,90.40
2023-01-10T06:07:09.197Z,90.30
2023-01-10T06:09:38.351Z,90.40
2023-01-10T06:12:08.357Z,90.40
2023-01-10T06:14:38.949Z,90.30
2023-01-10T06:17:11.211Z,90.20
2023-01-10T06:19:46.110Z,90.20
2023-01-10T06:22:15.540Z,90.30
2023-01-10T06:24:46.772Z,90.10
2023-01-10T06:27:20.112Z,90.00
2023-01-10T06:29:59.781Z,90.10
2023-01-10T06:32:30.033Z,90.20
2023-01-10T06:34:59.161Z,90.30
2023-01-10T06:37:28.375Z,90.40
2023-01-10T06:39:57.489Z,90.40
2023-01-10T06:42:26.871Z,90.50
2023-01-10T06:44:55.960Z,90.50
2023-01-10T06:47:25.109Z,90.50
2023-01-10T06:49:54.323Z,90.50
2023-01-10T06:52:23.418Z,90.50
2023-01-10T06:54:54.144Z,90.50
2023-01-10T06:57:23.520Z,90.50
2023-01-10T06:59:54.044Z,90.40
2023-01-10T07:02:23.516Z,90.10
2023-01-10T07:04:52.770Z,90.20
2023-01-10T07:07:21.976Z,90.20
2023-01-10T07:09:51.047Z,90.20
2023-01-10T07:12:20.323Z,90.10
2023-01-10T07:14:49.454Z,90.20
2023-01-10T07:17:18.623Z,90.20
2023-01-10T07:19:53.250Z,90.10
2023-01-10T07:22:22.492Z,90.00
2023-01-10T07:24:51.602Z,90.10
2023-01-10T07:27:20.847Z,90.00
2023-01-10T07:29:50.981Z,90.20
2023-01-10T07:32:20.118Z,90.20
2023-01-10T07:34:49.284Z,90.20
2023-01-10T07:37:18.487Z,90.20
2023-01-10T07:39:47.593Z,90.30
2023-01-10T07:42:16.790Z,90.40
2023-01-10T07:44:46.776Z,90.40
2023-01-10T07:47:17.182Z,90.40
2023-01-10T07:49:46.631Z,90.40
2023-01-10T07:52:15.795Z,90.50
2023-01-10T07:54:44.911Z,90.60
2023-01-10T07:57:14.107Z,90.50
2023-01-10T07:59:43.218Z,90.60
2023-01-10T08:02:14.454Z,91.10
2023-01-10T08:04:45.689Z,90.70
2023-01-10T08:07:19.892Z,90.60
2023-01-10T08:09:49.172Z,90.60
2023-01-10T08:12:18.289Z,90.60
2023-01-10T08:14:47.431Z,90.50
2023-01-10T08:17:16.578Z,90.60
2023-01-10T08:19:46.338Z,90.60
2023-01-10T08:22:15.538Z,90.40
2023-01-10T08:24:44.781Z,90.60
2023-01-10T08:27:14.083Z,90.80
2023-01-10T08:29:43.303Z,91.10
2023-01-10T08:32:13.288Z,91.30
2023-01-10T08:34:42.524Z,91.30
2023-01-10T08:37:15.470Z,91.50
2023-01-10T08:39:44.643Z,91.50
2023-01-10T08:42:13.767Z,91.50
2023-01-10T08:44:42.903Z,91.60
2023-01-10T08:47:12.130Z,91.80
2023-01-10T08:49:41.288Z,91.80
2023-01-10T08:52:10.736Z,91.90
2023-01-10T08:54:39.915Z,92.10
2023-01-10T08:57:09.056Z,92.10
2023-01-10T08:59:38.164Z,92.20
2023-01-10T09:02:09.608Z,92.20
2023-01-10T09:04:39.348Z,92.20
2023-01-10T09:07:08.641Z,92.30
2023-01-10T09:09:39.280Z,92.40
2023-01-10T09:12:28.464Z,92.50
2023-01-10T09:14:57.650Z,92.60
2023-01-10T09:17:26.992Z,92.70
2023-01-10T09:19:57.304Z,92.80
2023-01-10T09:22:26.476Z,92.80
2023-01-10T09:24:56.651Z,92.90
2023-01-10T09:27:25.848Z,93.00
2023-01-10T09:29:55.051Z,93.10
2023-01-10T09:32:24.377Z,93.10
2023-01-10T09:34:53.655Z,93.10
2023-01-10T09:37:22.985Z,93.20
2023-01-10T09:39:53.870Z,93.20
2023-01-10T09:43:08.769Z,93.30
2023-01-10T09:49:26.679Z,93.30
2023-01-10T09:51:59.496Z,93.30
2023-01-10T09:54:42.478Z,93.40
2023-01-10T09:57:22.193Z,93.50
2023-01-10T09:59:54.903Z,93.40
2023-01-10T10:02:48.272Z,93.50
2023-01-10T10:05:29.902Z,93.50
2023-01-10T10:08:05.968Z,93.50
2023-01-10T10:10:42.135Z,93.50
2023-01-10T10:14:20.959Z,93.60
2023-01-10T10:17:33.097Z,93.60
2023-01-10T10:20:31.526Z,93.60
2023-01-10T10:23:28.498Z,93.60
2023-01-10T10:26:29.783Z,93.70
2023-01-10T10:29:54.554Z,93.80
2023-01-10T10:32:52.389Z,93.70
2023-01-10T10:35:54.003Z,93.90
2023-01-10T10:38:33.253Z,93.90
2023-01-10T10:41:03.779Z,93.90
2023-01-10T10:43:40.842Z,94.00
2023-01-10T10:46:16.289Z,94.10
2023-01-10T10:49:21.171Z,94.20
2023-01-10T10:51:55.132Z,94.20
2023-01-10T10:54:24.523Z,94.30
2023-01-10T10:56:56.174Z,94.30
2023-01-10T10:59:25.438Z,94.30
2023-01-10T11:01:55.638Z,94.30
2023-01-10T11:04:26.285Z,94.40
2023-01-10T11:06:55.891Z,94.40
2023-01-10T11:09:58.272Z,94.40
2023-01-10T11:12:36.236Z,94.40
2023-01-10T11:15:06.549Z,94.80
2023-01-10T11:17:41.886Z,94.40
2023-01-10T11:20:19.285Z,94.50
2023-01-10T11:22:55.183Z,94.60
2023-01-10T11:25:25.458Z,94.50
2023-01-10T11:28:02.997Z,94.60
2023-01-10T11:30:38.497Z,94.60
2023-01-10T11:33:19.099Z,94.70
2023-01-10T11:36:08.265Z,94.80
2023-01-10T11:38:38.533Z,94.80
2023-01-10T11:41:35.011Z,94.80
2023-01-10T11:44:27.868Z,94.90
2023-01-10T11:47:03.270Z,95.00
2023-01-10T11:49:47.784Z,95.10
2023-01-10T11:52:31.423Z,95.20
2023-01-10T11:55:02.692Z,95.10
2023-01-10T11:57:34.439Z,95.30
2023-01-10T12:00:12.722Z,95.40
2023-01-10T12:02:45.452Z,95.40
2023-01-10T12:05:23.573Z,95.50
2023-01-10T12:08:00.437Z,95.50
2023-01-10T12:10:30.857Z,95.70
2023-01-10T12:13:17.737Z,95.80
2023-01-10T12:15:47.976Z,95.90
2023-01-10T12:18:20.602Z,96.00
2023-01-10T12:20:56.120Z,96.00
2023-01-10T12:23:29.658Z,96.10
2023-01-10T12:26:11.340Z,96.20
2023-01-10T12:28:50.113Z,96.20
2023-01-10T12:31:25.637Z,96.50
2023-01-10T12:34:22.305Z,96.50
2023-01-10T12:37:15.771Z,96.70
2023-01-10T12:39:58.979Z,96.70
2023-01-10T12:43:19.522Z,96.80
2023-01-10T12:45:59.572Z,96.70
2023-01-10T12:49:03.094Z,97.00
2023-01-10T12:51:34.587Z,97.30
2023-01-10T12:54:20.231Z,97.40
2023-01-10T12:56:50.837Z,97.60
2023-01-10T12:59:44.473Z,97.70
2023-01-10T13:02:29.625Z,97.60
2023-01-10T13:05:04.265Z,97.50
2023-01-10T13:07:37.117Z,97.70
2023-01-10T13:10:10.047Z,98.00
2023-01-10T13:12:46.646Z,98.10
2023-01-10T13:15:31.626Z,98.30
2023-01-10T13:18:17.898Z,98.40
2023-01-10T13:20:47.206Z,98.40
2023-01-10T13:23:38.867Z,98.50
2023-01-10T13:26:13.871Z,98.60
2023-01-10T13:28:59.603Z,98.60
2023-01-10T13:31:35.518Z,98.70
2023-01-10T13:34:21.226Z,98.70
2023-01-10T13:37:04.481Z,98.80
2023-01-10T13:39:50.087Z,99.00
2023-01-10T13:43:06.023Z,98.80
2023-01-10T13:45:39.596Z,99.00
2023-01-10T13:48:29.112Z,99.10
2023-01-10T13:51:17.607Z,99.00
2023-01-10T13:53:58.299Z,99.00
2023-01-10T13:56:37.485Z,99.20
2023-01-10T13:59:54.189Z,99.20
2023-01-10T14:02:30.426Z,99.10
2023-01-10T14:05:04.714Z,99.20
2023-01-10T14:07:59.004Z,99.20
2023-01-10T14:10:35.610Z,99.20
2023-01-10T14:13:15.305Z,99.30
2023-01-10T14:15:49.309Z,99.40
2023-01-10T14:18:40.194Z,99.40
2023-01-10T14:21:20.761Z,99.30
2023-01-10T14:23:59.469Z,99.20
2023-01-10T14:26:41.480Z,99.30
2023-01-10T14:29:17.997Z,99.30
2023-01-10T14:31:57.467Z,99.30
2023-01-10T14:34:37.883Z,99.30
2023-01-10T14:37:19.317Z,99.30
2023-01-10T14:39:51.236Z,99.50
2023-01-10T14:42:21.437Z,99.40
2023-01-10T14:45:16.043Z,99.50
2023-01-10T14:47:45.613Z,99.50
2023-01-10T14:50:33.589Z,99.60
2023-01-10T14:53:02.737Z,99.60
2023-01-10T14:55:32.424Z,99.60
2023-01-10T14:58:04.696Z,99.60
2023-01-10T15:00:37.562Z,99.60
2023-01-10T15:03:10.195Z,99.80
2023-01-10T15:05:50.913Z,99.60
2023-01-10T15:08:32.641Z,99.60
2023-01-10T15:11:10.679Z,99.70
2023-01-10T15:13:57.944Z,99.80
2023-01-10T15:16:32.479Z,99.80
2023-01-10T15:19:01.849Z,99.50
2023-01-10T15:21:31.186Z,99.80
2023-01-10T15:24:00.274Z,99.90
2023-01-10T15:26:35.074Z,99.90
2023-01-10T15:29:20.359Z,99.80
2023-01-10T15:31:49.914Z,99.90
2023-01-10T15:34:29.240Z,99.90
2023-01-10T15:37:03.129Z,99.90
2023-01-10T15:39:47.433Z,99.90
2023-01-10T15:42:17.056Z,99.90
2023-01-10T15:44:53.701Z,99.90
2023-01-10T15:47:42.588Z,99.90
2023-01-10T15:50:23.488Z,99.90
2023-01-10T15:53:07.081Z,99.90
2023-01-10T15:56:11.349Z,99.90
2023-01-10T15:58:44.757Z,99.90
2023-01-10T16:01:18.597Z,99.90
2023-01-10T16:03:54.406Z,99.90
2023-01-10T16:06:28.367Z,99.90
2023-01-10T16:09:01.293Z,99.90
2023-01-10T16:12:12.785Z,99.90
2023-01-10T16:14:42.070Z,99.90
2023-01-10T16:17:13.226Z,99.90
2023-01-10T16:19:42.401Z,99.90
2023-01-10T16:22:20.403Z,99.90
2023-01-10T16:24:53.421Z,99.90
2023-01-10T16:27:22.637Z,99.90
2023-01-10T16:29:52.865Z,99.90
2023-01-10T16:32:22.021Z,99.90
2023-01-10T16:34:51.149Z,99.90
2023-01-10T16:37:20.344Z,99.90
2023-01-10T16:39:49.577Z,99.90
2023-01-10T16:42:36.828Z,99.90
2023-01-10T16:45:06.390Z,99.90
2023-01-10T16:47:35.653Z,99.90
2023-01-10T16:50:04.972Z,99.90
2023-01-10T16:52:34.630Z,99.90
2023-01-10T16:55:03.977Z,99.90
2023-01-10T16:57:33.089Z,99.90
2023-01-10T17:00:02.279Z,99.90
2023-01-10T17:02:31.950Z,99.90
2023-01-10T17:05:01.106Z,99.90
2023-01-10T17:07:30.196Z,99.90
2023-01-10T17:10:00.266Z,99.90
2023-01-10T17:12:37.268Z,99.90
2023-01-10T17:15:14.863Z,99.90
2023-01-10T17:17:45.958Z,99.90
2023-01-10T17:20:17.222Z,99.90
2023-01-10T17:22:47.105Z,99.90
2023-01-10T17:25:23.249Z,99.90
2023-01-10T17:27:52.418Z,99.90
2023-01-10T17:30:21.588Z,99.90
2023-01-10T17:32:50.711Z,99.90
2023-01-10T17:35:21.022Z,99.90
2023-01-10T17:37:53.125Z,99.90
2023-01-10T17:40:22.291Z,99.90
2023-01-10T17:42:51.384Z,99.90
2023-01-10T17:45:21.299Z,99.90
2023-01-10T17:47:52.838Z,99.90
2023-01-10T17:50:21.982Z,99.90
2023-01-10T17:52:51.751Z,99.90
2023-01-10T17:55:20.910Z,99.90
2023-01-10T17:57:50.013Z,99.90
2023-01-10T18:00:20.984Z,99.90
2023-01-10T18:02:51.495Z,99.90
2023-01-10T18:05:20.628Z,99.90
2023-01-10T18:07:50.139Z,99.90
2023-01-10T18:10:19.373Z,99.90
2023-01-10T18:12:48.523Z,99.90
2023-01-10T18:15:18.372Z,99.90
2023-01-10T18:17:47.544Z,99.90
2023-01-10T18:20:16.809Z,99.90
2023-01-10T18:23:05.053Z,99.90
2023-01-10T18:25:34.909Z,99.90
2023-01-10T18:28:03.964Z,99.90
2023-01-10T18:30:33.186Z,99.90
2023-01-10T18:33:02.336Z,99.90
2023-01-10T18:35:31.424Z,99.90
2023-01-10T18:38:01.405Z,99.90
2023-01-10T18:40:30.510Z,99.90
2023-01-10T18:43:00.029Z,99.90
2023-01-10T18:45:31.593Z,99.90
2023-01-10T18:48:02.690Z,99.90
2023-01-10T18:50:31.800Z,99.90
2023-01-10T18:53:01.473Z,99.90
2023-01-10T18:55:30.563Z,99.90
2023-01-10T18:57:59.770Z,99.90
2023-01-10T19:00:29.652Z,99.90
2023-01-10T19:03:00.594Z,99.90
2023-01-10T19:05:29.828Z,99.90
2023-01-10T19:07:59.279Z,99.90
2023-01-10T19:10:31.150Z,99.90
2023-01-10T19:13:03.907Z,99.90
2023-01-10T19:15:33.104Z,99.90
2023-01-10T19:18:02.341Z,99.90
2023-01-10T19:20:31.631Z,99.90
2023-01-10T19:23:00.814Z,99.90
2023-01-10T19:25:30.057Z,99.90
2023-01-10T19:27:59.236Z,99.90
2023-01-10T19:30:29.211Z,99.90
2023-01-10T19:32:58.565Z,99.90
2023-01-10T19:35:27.796Z,99.90
2023-01-10T19:37:56.955Z,99.90
2023-01-10T19:40:26.157Z,99.90
2023-01-10T19:42:55.679Z,99.90
2023-01-10T19:45:24.874Z,99.90
2023-01-10T19:47:54.356Z,99.90
2023-01-10T19:50:23.967Z,99.90
2023-01-10T19:52:53.205Z,99.90
2023-01-10T19:55:22.413Z,99.90
2023-01-10T19:57:51.651Z,99.90
2023-01-10T20:00:21.252Z,99.90
2023-01-10T20:02:50.679Z,99.90
2023-01-10T20:05:19.941Z,99.90
2023-01-10T20:07:53.802Z,99.90
2023-01-10T20:10:23.049Z,99.90
2023-01-10T20:12:52.275Z,99.90
2023-01-10T20:15:21.571Z,99.90
2023-01-10T20:17:50.763Z,99.90
2023-01-10T20:20:21.587Z,99.90
2023-01-10T20:22:50.767Z,99.90
2023-01-10T20:25:20.008Z,99.90
2023-01-10T20:27:49.252Z,99.90
2023-01-10T20:30:19.684Z,99.90
2023-01-10T20:32:49.686Z,99.90
2023-01-10T20:35:22.876Z,99.90
2023-01-10T20:37:52.112Z,99.90
2023-01-10T20:40:23.724Z,99.90
2023-01-10T20:42:52.992Z,99.90
2023-01-10T20:45:22.586Z,99.90
2023-01-10T20:47:54.346Z,99.90
2023-01-10T20:50:24.313Z,99.90
2023-01-10T20:52:53.473Z,99.90
2023-01-10T20:55:22.773Z,99.90
2023-01-10T20:57:52.072Z,99.90
2023-01-10T21:00:21.791Z,99.90
2023-01-10T21:02:51.744Z,99.90
2023-01-10T21:05:20.851Z,99.90
2023-01-10T21:07:50.072Z,99.90
2023-01-10T21:10:19.607Z,99.90
2023-01-10T21:12:48.788Z,99.90
2023-01-10T21:15:17.953Z,99.90
2023-01-10T21:17:50.153Z,99.90
2023-01-10T21:20:19.558Z,99.90
2023-01-10T21:22:48.687Z,99.90
2023-01-10T21:25:17.923Z,99.90
2023-01-10T21:27:47.039Z,99.90
2023-01-10T21:30:17.218Z,99.90
2023-01-10T21:32:46.788Z,99.90
2023-01-10T21:35:16.101Z,99.90
2023-01-10T21:37:45.249Z,99.90
2023-01-10T21:40:14.418Z,99.90
2023-01-10T21:42:46.413Z,99.90
2023-01-10T21:45:16.000Z,99.90
2023-01-10T21:47:45.095Z,99.90
2023-01-10T21:50:15.182Z,99.90
2023-01-10T21:52:44.980Z,99.90
2023-01-10T21:55:17.103Z,99.90
2023-01-10T21:57:46.483Z,99.90
2023-01-10T22:00:16.035Z,99.90
2023-01-10T22:02:45.284Z,99.90
2023-01-10T22:05:14.569Z,99.90
2023-01-10T22:07:45.846Z,99.90
2023-01-10T22:10:14.900Z,99.90
2023-01-10T22:12:43.975Z,99.90
2023-01-10T22:15:13.898Z,99.90
2023-01-10T22:17:43.351Z,99.90
2023-01-10T22:20:13.171Z,99.90
2023-01-10T22:22:42.285Z,99.90
2023-01-10T22:25:11.809Z,99.90
2023-01-10T22:27:42.441Z,99.90
2023-01-10T22:30:13.922Z,99.90
2023-01-10T22:32:43.043Z,99.90
2023-01-10T22:35:15.645Z,99.90
2023-01-10T22:37:44.841Z,99.90
2023-01-10T22:40:14.129Z,99.90
2023-01-10T22:42:43.213Z,99.90
2023-01-10T22:45:12.919Z,99.90
2023-01-10T22:47:42.007Z,99.90
2023-01-10T22:50:11.699Z,99.90
2023-01-10T22:52:40.887Z,99.90
2023-01-10T22:55:10.528Z,99.90
2023-01-10T22:57:47.281Z,99.90
2023-01-10T23:00:18.102Z,99.90
2023-01-10T23:02:47.994Z,99.90
2023-01-10T23:05:17.118Z,99.90
2023-01-10T23:07:46.218Z,99.90
2023-01-10T23:10:29.151Z,99.90
2023-01-10T23:12:59.724Z,99.90
2023-01-10T23:15:29.291Z,99.90
2023-01-10T23:17:58.401Z,99.90
2023-01-10T23:20:27.537Z,99.90
2023-01-10T23:22:56.752Z,99.90
2023-01-10T23:25:26.023Z,99.90
2023-01-10T23:27:56.028Z,99.90
2023-01-10T23:30:27.603Z,99.90
2023-01-10T23:32:57.047Z,99.90
2023-01-10T23:35:26.168Z,99.90
2023-01-10T23:37:55.235Z,99.90
2023-01-10T23:40:24.415Z,99.90
2023-01-10T23:42:53.491Z,99.90
2023-01-10T23:45:22.591Z,99.90
2023-01-10T23:47:51.773Z,99.90
2023-01-10T23:50:22.609Z,99.90
2023-01-10T23:52:51.688Z,99.90
2023-01-10T23:55:21.264Z,99.90
2023-01-10T23:57:50.420Z,99.90
